Time;durP1;ratioP1;P1;durP2;ratioP2;P2;SDS_P1;SDS_P2;PMS_P1;PMS_P2;Temp;Humidity;BMP_temperature;BMP_pressure;BME280_temperature;BME280_humidity;BME280_pressure;Samples;Min_cycle;Max_cycle;Signal;HPM_P1;HPM_P2
2021/08/17 00:01:15;;;;;;;6.80;4.22;;;;;;;14.48;78.92;100093.41;1621366;47;20848;-78
2021/08/17 00:02:48;;;;;;;6.85;4.00;;;;;;;14.45;79.08;100099.09;1622430;47;20034;-78
2021/08/17 00:04:22;;;;;;;10.02;4.68;;;;;;;14.44;79.17;100100.16;1621487;54;20034;-77
2021/08/17 00:05:58;;;;;;;7.35;4.20;;;;;;;14.40;78.97;100090.72;1622824;47;20877;-78
2021/08/17 00:07:32;;;;;;;8.52;4.50;;;;;;;14.35;78.93;100093.09;1621835;54;20040;-78
2021/08/17 00:09:03;;;;;;;9.65;4.57;;;;;;;14.35;79.24;100098.47;1621660;47;20042;-77
2021/08/17 00:10:37;;;;;;;5.93;3.78;;;;;;;14.36;79.04;100102.81;1622076;54;20072;-78
2021/08/17 00:12:11;;;;;;;8.95;4.70;;;;;;;14.39;79.09;100097.09;1621844;54;20034;-78
2021/08/17 00:13:47;;;;;;;6.78;4.25;;;;;;;14.35;78.67;100093.91;1622043;47;20041;-78
2021/08/17 00:15:20;;;;;;;8.35;4.30;;;;;;;14.32;78.59;100094.25;1623505;39;20431;-77
2021/08/17 00:16:54;;;;;;;7.18;4.00;;;;;;;14.36;78.91;100089.38;1625192;47;20058;-78
2021/08/17 00:18:28;;;;;;;7.43;4.55;;;;;;;14.35;78.56;100093.09;1625754;47;20161;-77
2021/08/17 00:20:01;;;;;;;9.13;4.35;;;;;;;14.33;79.02;100095.94;1622324;54;20035;-78
2021/08/17 00:21:38;;;;;;;9.40;4.88;;;;;;;14.37;78.86;100096.44;1621529;39;20456;-78
2021/08/17 00:23:12;;;;;;;9.35;4.72;;;;;;;14.36;79.01;100097.44;1621944;47;20559;-78
2021/08/17 00:24:46;;;;;;;9.63;5.10;;;;;;;14.27;79.11;100091.22;1622766;54;20103;-78
2021/08/17 00:26:19;;;;;;;9.10;4.57;;;;;;;14.24;79.18;100096.09;1620576;54;20031;-79
2021/08/17 00:27:53;;;;;;;8.82;4.20;;;;;;;14.24;78.96;100099.63;1622431;39;20426;-78
2021/08/17 00:29:26;;;;;;;10.32;5.82;;;;;;;14.23;78.90;100105.19;1621099;54;20043;-78
2021/08/17 00:31:01;;;;;;;8.32;5.25;;;;;;;14.19;79.12;100108.19;1622085;47;20034;-78
2021/08/17 00:32:34;;;;;;;9.15;5.18;;;;;;;14.18;79.24;100106.50;1621144;47;20046;-77
2021/08/17 00:34:08;;;;;;;9.43;5.38;;;;;;;14.18;79.29;100111.88;1622145;39;20455;-78
2021/08/17 00:35:42;;;;;;;11.20;5.15;;;;;;;14.23;79.18;100114.06;1622271;54;20571;-78
2021/08/17 00:37:19;;;;;;;10.77;5.65;;;;;;;14.29;79.26;100110.72;1622826;54;20037;-78
2021/08/17 00:38:53;;;;;;;10.10;5.72;;;;;;;14.33;78.85;100111.22;1622608;54;20040;-78
2021/08/17 00:40:26;;;;;;;10.02;5.68;;;;;;;14.33;78.82;100106.69;1621370;47;20048;-78
2021/08/17 00:42:00;;;;;;;9.32;5.55;;;;;;;14.35;78.86;100107.38;1622542;54;20031;-78
2021/08/17 00:43:34;;;;;;;8.70;4.82;;;;;;;14.41;78.63;100105.84;1621151;47;20042;-78
2021/08/17 00:45:08;;;;;;;9.43;5.28;;;;;;;14.44;78.47;100113.59;1621825;47;20042;-78
2021/08/17 00:46:42;;;;;;;10.50;5.47;;;;;;;14.41;78.50;100111.22;1621096;47;20040;-77
2021/08/17 00:48:15;;;;;;;9.10;5.38;;;;;;;14.39;78.52;100109.72;1622668;54;20034;-78
2021/08/17 00:49:46;;;;;;;9.43;5.03;;;;;;;14.35;78.53;100110.06;1620764;54;20049;-78
2021/08/17 00:51:20;;;;;;;8.77;5.07;;;;;;;14.37;78.72;100109.88;1621741;47;20069;-79
2021/08/17 00:52:57;;;;;;;9.93;5.38;;;;;;;14.40;78.37;100117.63;1621640;54;20556;-78
2021/08/17 00:54:31;;;;;;;8.55;5.20;;;;;;;14.30;78.28;100114.25;1621298;47;20048;-78
2021/08/17 00:56:05;;;;;;;10.05;5.70;;;;;;;14.22;78.18;100119.63;1622431;39;20508;-77
2021/08/17 00:57:40;;;;;;;10.80;5.25;;;;;;;14.13;77.96;100116.06;1622322;47;20030;-79
2021/08/17 00:59:13;;;;;;;10.38;5.60;;;;;;;14.07;77.64;100120.28;1623618;54;20039;-79
2021/08/17 01:00:48;;;;;;;10.70;5.15;;;;;;;14.04;77.87;100120.63;1621622;47;20046;-78
2021/08/17 01:02:19;;;;;;;8.27;4.93;;;;;;;14.07;77.67;100119.44;1622497;54;20138;-79
2021/08/17 01:03:53;;;;;;;10.27;5.20;;;;;;;14.08;77.79;100118.44;1622686;31;20486;-78
2021/08/17 01:05:31;;;;;;;8.32;4.70;;;;;;;14.02;77.60;100125.31;1623626;47;20030;-79
2021/08/17 01:07:06;;;;;;;9.20;4.90;;;;;;;14.01;77.86;100126.31;1622452;47;20041;-80
2021/08/17 01:08:42;;;;;;;10.82;5.30;;;;;;;13.97;77.64;100127.66;1622597;50;20098;-78
2021/08/17 01:10:15;;;;;;;9.60;5.20;;;;;;;13.91;77.83;100128.31;1622340;47;20126;-79
2021/08/17 01:11:51;;;;;;;11.50;5.93;;;;;;;13.90;78.30;100124.78;1621736;54;20039;-77
2021/08/17 01:13:27;;;;;;;8.80;5.57;;;;;;;13.91;78.61;100129.16;1623887;39;20519;-79
2021/08/17 01:15:01;;;;;;;10.05;5.43;;;;;;;13.84;78.41;100130.81;1621286;54;20153;-78
2021/08/17 01:16:34;;;;;;;11.60;6.38;;;;;;;13.81;78.46;100137.34;1622838;54;20806;-78
2021/08/17 01:18:09;;;;;;;14.70;6.47;;;;;;;13.82;78.67;100132.84;1622584;54;20958;-77
2021/08/17 01:19:42;;;;;;;9.65;5.53;;;;;;;13.86;78.75;100135.03;1621929;54;20062;-78
2021/08/17 01:21:17;;;;;;;11.43;5.30;;;;;;;13.83;78.74;100134.53;1622139;47;20035;-77
2021/08/17 01:22:51;;;;;;;10.77;6.28;;;;;;;13.77;78.79;100144.06;1623478;39;20647;-78
2021/08/17 01:24:27;;;;;;;9.57;6.13;;;;;;;13.70;78.90;100140.34;1621951;47;20041;-78
2021/08/17 01:26:03;;;;;;;11.20;5.70;;;;;;;13.70;79.21;100148.41;1621215;47;20034;-77
2021/08/17 01:27:37;;;;;;;13.50;6.70;;;;;;;13.67;79.07;100148.75;1623432;54;20035;-78
2021/08/17 01:29:11;;;;;;;9.93;5.90;;;;;;;13.64;79.30;100149.06;1621033;47;20694;-79
2021/08/17 01:30:45;;;;;;;9.02;4.78;;;;;;;13.65;79.54;100145.38;1624018;39;20426;-78
2021/08/17 01:32:19;;;;;;;10.63;5.85;;;;;;;13.61;79.74;100144.84;1622414;47;20044;-78
2021/08/17 01:33:53;;;;;;;11.93;5.82;;;;;;;13.56;79.42;100152.53;1623191;47;20034;-78
2021/08/17 01:35:28;;;;;;;11.05;6.55;;;;;;;13.53;79.62;100150.19;1623177;47;20169;-77
2021/08/17 01:37:01;;;;;;;10.02;5.63;;;;;;;13.51;79.79;100144.13;1622445;54;20067;-77
2021/08/17 01:38:35;;;;;;;13.63;6.25;;;;;;;13.50;79.43;100155.88;1623043;54;20053;-78
2021/08/17 01:40:12;;;;;;;9.02;5.32;;;;;;;13.50;79.42;100159.44;1621977;47;20041;-78
2021/08/17 01:41:49;;;;;;;9.15;5.50;;;;;;;13.51;79.18;100153.03;1623116;39;20508;-78
2021/08/17 01:43:23;;;;;;;15.88;6.40;;;;;;;13.51;78.96;100162.94;1622477;47;20129;-79
2021/08/17 01:44:58;;;;;;;11.27;6.25;;;;;;;13.52;78.66;100156.56;1622529;47;20034;-79
2021/08/17 01:46:31;;;;;;;10.10;5.70;;;;;;;13.50;78.58;100156.75;1622759;54;20865;-78
2021/08/17 01:48:05;;;;;;;10.18;6.47;;;;;;;13.47;78.33;100154.38;1622197;47;20035;-79
2021/08/17 01:49:39;;;;;;;10.77;5.55;;;;;;;13.45;78.72;100156.38;1621967;54;20063;-78
2021/08/17 01:51:13;;;;;;;9.93;5.70;;;;;;;13.44;78.47;100154.69;1623171;39;20523;-78
2021/08/17 01:52:47;;;;;;;12.18;5.15;;;;;;;13.44;78.46;100162.72;1621965;47;20034;-78
2021/08/17 01:54:20;;;;;;;11.82;6.10;;;;;;;13.41;78.02;100163.91;1622254;46;20035;-78
2021/08/17 01:55:54;;;;;;;9.65;5.32;;;;;;;13.39;78.09;100173.13;1622656;47;20049;-77
2021/08/17 01:57:31;;;;;;;11.23;5.47;;;;;;;13.36;78.12;100170.72;1621980;47;20048;-78
2021/08/17 01:59:06;;;;;;;9.27;4.75;;;;;;;13.34;77.77;100172.72;1622906;47;20035;-78
2021/08/17 02:00:41;;;;;;;9.85;4.88;;;;;;;13.30;78.03;100169.50;1628531;47;20094;-79
2021/08/17 02:02:15;;;;;;;9.25;4.57;;;;;;;13.29;78.14;100172.38;1629266;54;20122;-78
2021/08/17 02:03:48;;;;;;;10.45;5.50;;;;;;;13.25;77.86;100170.00;1623285;47;20619;-77
2021/08/17 02:05:23;;;;;;;7.90;4.53;;;;;;;13.22;77.95;100175.69;1622596;52;20039;-76
2021/08/17 02:06:57;;;;;;;9.82;4.78;;;;;;;13.15;77.96;100169.25;1621622;47;20059;-77
2021/08/17 02:08:31;;;;;;;8.60;4.22;;;;;;;13.12;77.86;100166.91;1622857;47;20030;-77
2021/08/17 02:10:05;;;;;;;9.05;4.72;;;;;;;13.13;77.87;100179.31;1622236;46;20038;-76
2021/08/17 02:11:38;;;;;;;11.48;5.50;;;;;;;13.16;77.74;100178.16;1621644;47;20581;-77
2021/08/17 02:13:16;;;;;;;8.98;4.82;;;;;;;13.13;77.51;100179.31;1623014;54;20045;-77
2021/08/17 02:14:50;;;;;;;9.65;4.72;;;;;;;13.08;77.37;100181.63;1622085;47;20067;-77
2021/08/17 02:16:23;;;;;;;7.32;4.32;;;;;;;13.04;77.12;100189.16;1623470;39;20648;-78
2021/08/17 02:17:54;;;;;;;8.88;4.47;;;;;;;13.02;77.03;100193.00;1623400;54;20030;-77
2021/08/17 02:19:28;;;;;;;8.23;4.70;;;;;;;13.02;76.63;100188.47;1621933;51;20752;-77
2021/08/17 02:21:02;;;;;;;9.05;4.43;;;;;;;13.02;76.64;100184.97;1621971;54;20040;-77
2021/08/17 02:22:36;;;;;;;8.60;4.22;;;;;;;13.04;76.78;100178.44;1622902;50;20806;-77
2021/08/17 02:24:09;;;;;;;8.18;4.47;;;;;;;13.03;76.28;100175.91;1622217;47;20030;-77
2021/08/17 02:25:43;;;;;;;10.27;4.65;;;;;;;13.08;76.09;100189.69;1623433;52;20039;-77
2021/08/17 02:27:17;;;;;;;8.07;5.05;;;;;;;13.08;76.17;100190.50;1621152;47;20035;-76
2021/08/17 02:28:53;;;;;;;10.63;4.57;;;;;;;13.08;76.21;100181.63;1623035;54;20036;-77
2021/08/17 02:30:27;;;;;;;10.88;4.30;;;;;;;13.06;75.96;100189.00;1622449;47;20034;-77
2021/08/17 02:32:00;;;;;;;8.50;4.05;;;;;;;12.96;75.71;100183.75;1623988;47;20036;-77
2021/08/17 02:33:34;;;;;;;12.20;5.00;;;;;;;12.89;76.09;100188.06;1624429;39;20432;-77
2021/08/17 02:35:06;;;;;;;9.15;4.38;;;;;;;12.83;76.17;100200.25;1623793;54;20042;-77
2021/08/17 02:36:40;;;;;;;8.05;3.75;;;;;;;12.81;75.77;100202.25;1623925;54;20030;-78
2021/08/17 02:38:15;;;;;;;8.90;3.90;;;;;;;12.82;75.80;100208.44;1623809;47;20031;-77
2021/08/17 02:39:46;;;;;;;8.65;5.00;;;;;;;12.83;76.04;100204.75;1623558;47;20059;-77
2021/08/17 02:41:21;;;;;;;7.75;4.15;;;;;;;12.86;76.04;100205.28;1623428;47;20038;-77
2021/08/17 02:42:54;;;;;;;7.80;3.63;;;;;;;12.83;75.66;100205.63;1624078;54;20069;-77
2021/08/17 02:44:30;;;;;;;9.27;4.57;;;;;;;12.84;75.74;100212.69;1623447;47;20034;-77
2021/08/17 02:46:04;;;;;;;10.02;4.22;;;;;;;12.84;75.77;100207.31;1623745;47;20568;-78
2021/08/17 02:47:38;;;;;;;8.05;4.35;;;;;;;12.84;75.47;100212.69;1623926;54;20040;-78
2021/08/17 02:49:11;;;;;;;9.35;4.65;;;;;;;12.84;75.75;100217.19;1624146;47;20142;-78
2021/08/17 02:50:45;;;;;;;11.95;4.93;;;;;;;12.82;75.63;100220.03;1624529;54;20035;-76
2021/08/17 02:52:19;;;;;;;8.35;4.10;;;;;;;12.79;75.65;100214.97;1624150;54;20034;-77
2021/08/17 02:53:52;;;;;;;7.65;4.43;;;;;;;12.79;75.32;100225.69;1623556;47;20045;-78
2021/08/17 02:55:26;;;;;;;6.53;3.72;;;;;;;12.81;75.56;100215.66;1623921;54;20041;-77
2021/08/17 02:57:00;;;;;;;8.40;4.43;;;;;;;12.85;75.37;100218.88;1623687;47;20038;-77
2021/08/17 02:58:31;;;;;;;8.95;4.30;;;;;;;12.87;75.13;100217.72;1623854;47;20587;-78
2021/08/17 03:00:08;;;;;;;10.77;4.43;;;;;;;12.88;75.11;100224.75;1623605;54;20038;-77
2021/08/17 03:01:42;;;;;;;7.57;3.83;;;;;;;12.77;75.21;100222.31;1623885;54;20041;-77
2021/08/17 03:03:16;;;;;;;8.43;4.28;;;;;;;12.73;75.45;100216.41;1623815;47;20038;-77
2021/08/17 03:04:49;;;;;;;8.13;4.60;;;;;;;12.69;75.61;100219.56;1623680;54;20168;-77
2021/08/17 03:06:23;;;;;;;8.90;4.78;;;;;;;12.66;75.53;100214.53;1623958;54;20564;-77
2021/08/17 03:08:00;;;;;;;8.07;4.43;;;;;;;12.62;76.04;100219.34;1624016;54;20048;-77
2021/08/17 03:09:34;;;;;;;8.88;4.50;;;;;;;12.57;75.93;100219.78;1624457;39;20857;-76
2021/08/17 03:11:07;;;;;;;8.43;4.07;;;;;;;12.52;76.11;100218.56;1623590;54;20129;-77
2021/08/17 03:12:41;;;;;;;8.00;4.50;;;;;;;12.52;76.41;100214.06;1624075;47;20037;-77
2021/08/17 03:14:14;;;;;;;11.70;4.88;;;;;;;12.53;76.64;100215.75;1623806;47;20031;-76
2021/08/17 03:15:51;;;;;;;10.32;4.75;;;;;;;12.51;76.75;100223.09;1623933;54;20038;-77
2021/08/17 03:17:24;;;;;;;10.00;4.78;;;;;;;12.51;77.09;100214.22;1623658;54;20031;-78
2021/08/17 03:18:58;;;;;;;11.52;6.18;;;;;;;12.50;77.22;100217.91;1624325;47;20115;-77
2021/08/17 03:20:33;;;;;;;8.27;5.75;;;;;;;12.48;77.46;100218.91;1624305;39;20784;-77
2021/08/17 03:22:08;;;;;;;9.90;5.40;;;;;;;12.45;77.37;100229.09;1626313;46;20102;-78
2021/08/17 03:23:42;;;;;;;10.50;5.25;;;;;;;12.43;77.38;100220.34;1628179;54;20067;-78
2021/08/17 03:25:16;;;;;;;10.30;5.75;;;;;;;12.44;77.55;100232.75;1627298;46;20039;-78
2021/08/17 03:26:50;;;;;;;9.45;5.43;;;;;;;12.47;77.50;100238.66;1624717;54;20667;-78
2021/08/17 03:28:23;;;;;;;10.75;6.03;;;;;;;12.52;77.29;100240.03;1624373;39;20463;-78
2021/08/17 03:29:57;;;;;;;11.32;6.07;;;;;;;12.60;77.13;100232.91;1624285;54;20059;-78
2021/08/17 03:31:33;;;;;;;13.73;6.82;;;;;;;12.56;76.81;100233.38;1623871;48;20042;-78
2021/08/17 03:33:07;;;;;;;9.98;6.00;;;;;;;12.52;76.79;100235.53;1624104;54;20073;-78
2021/08/17 03:34:41;;;;;;;14.27;8.20;;;;;;;12.52;76.91;100232.84;1623810;47;20090;-77
2021/08/17 03:36:14;;;;;;;11.02;7.70;;;;;;;12.53;77.23;100233.66;1623784;47;20162;-78
2021/08/17 03:37:48;;;;;;;13.05;8.88;;;;;;;12.52;77.01;100234.66;1622938;54;20041;-77
2021/08/17 03:39:22;;;;;;;14.77;8.93;;;;;;;12.51;77.05;100228.47;1624474;54;20030;-78
2021/08/17 03:40:55;;;;;;;10.82;7.55;;;;;;;12.49;77.21;100238.50;1624358;39;20370;-78
2021/08/17 03:42:29;;;;;;;12.55;6.45;;;;;;;12.46;77.33;100231.59;1624103;47;20034;-78
2021/08/17 03:44:03;;;;;;;10.88;5.53;;;;;;;12.42;77.12;100229.38;1623789;54;20031;-77
2021/08/17 03:45:37;;;;;;;8.98;4.95;;;;;;;12.39;77.26;100227.00;1624174;47;20133;-78
2021/08/17 03:47:14;;;;;;;8.40;4.57;;;;;;;12.38;77.29;100231.53;1623933;54;20058;-77
2021/08/17 03:48:48;;;;;;;9.73;4.93;;;;;;;12.35;77.22;100239.88;1623944;54;20134;-76
2021/08/17 03:50:23;;;;;;;9.05;5.80;;;;;;;12.35;77.41;100236.34;1624136;47;20052;-77
2021/08/17 03:51:56;;;;;;;9.98;6.00;;;;;;;12.39;77.74;100235.03;1623830;47;20164;-78
2021/08/17 03:53:30;;;;;;;8.88;4.90;;;;;;;12.40;77.56;100234.03;1624014;47;20042;-78
2021/08/17 03:55:04;;;;;;;8.18;4.80;;;;;;;12.40;77.53;100242.94;1623860;54;20045;-76
2021/08/17 03:56:37;;;;;;;9.05;4.95;;;;;;;12.39;77.95;100243.09;1623768;54;20564;-79
2021/08/17 03:58:11;;;;;;;10.65;5.50;;;;;;;12.38;77.80;100241.38;1623500;39;20432;-77
2021/08/17 03:59:44;;;;;;;11.98;5.45;;;;;;;12.37;77.85;100242.41;1622917;46;20034;-78
2021/08/17 04:01:19;;;;;;;11.45;5.43;;;;;;;12.33;78.12;100247.22;1622754;54;20059;-76
2021/08/17 04:02:56;;;;;;;9.55;4.57;;;;;;;12.31;78.05;100249.22;1622246;47;20034;-76
2021/08/17 04:04:30;;;;;;;8.40;4.47;;;;;;;12.30;77.96;100245.69;1621275;54;20118;-75
2021/08/17 04:06:03;;;;;;;8.07;4.60;;;;;;;12.31;77.96;100243.84;1623473;47;20038;-76
2021/08/17 04:07:37;;;;;;;8.23;4.55;;;;;;;12.31;78.26;100250.03;1623071;39;20519;-76
2021/08/17 04:09:11;;;;;;;11.13;5.38;;;;;;;12.32;78.26;100246.38;1623804;47;20036;-77
2021/08/17 04:10:46;;;;;;;12.05;5.05;;;;;;;12.29;78.32;100249.34;1623470;54;20038;-76
2021/08/17 04:12:20;;;;;;;10.70;4.97;;;;;;;12.24;78.31;100248.97;1623172;47;20037;-76
2021/08/17 04:13:53;;;;;;;8.50;4.68;;;;;;;12.23;78.67;100246.47;1623872;54;20055;-78
2021/08/17 04:15:24;;;;;;;11.20;5.18;;;;;;;12.25;78.74;100253.34;1623872;47;20065;-76
2021/08/17 04:16:58;;;;;;;11.15;5.38;;;;;;;12.26;78.74;100248.81;1623738;54;20542;-76
2021/08/17 04:18:34;;;;;;;8.88;4.95;;;;;;;12.24;78.39;100248.13;1623289;54;20077;-76
2021/08/17 04:20:11;;;;;;;10.70;4.93;;;;;;;12.24;78.58;100250.78;1623819;47;20045;-76
2021/08/17 04:21:44;;;;;;;7.80;4.20;;;;;;;12.24;78.58;100246.28;1623440;47;20648;-76
2021/08/17 04:23:18;;;;;;;8.90;4.70;;;;;;;12.27;78.53;100251.38;1623846;47;20030;-77
2021/08/17 04:24:52;;;;;;;11.48;5.55;;;;;;;12.33;78.34;100252.56;1621909;54;20034;-77
2021/08/17 04:26:26;;;;;;;12.52;6.07;;;;;;;12.33;78.64;100255.25;1623237;46;20030;-78
2021/08/17 04:27:59;;;;;;;9.95;5.47;;;;;;;12.31;78.48;100258.09;1623377;54;20169;-77
2021/08/17 04:29:33;;;;;;;9.88;5.25;;;;;;;12.35;78.46;100260.47;1623250;47;20037;-77
2021/08/17 04:31:07;;;;;;;9.98;4.70;;;;;;;12.35;78.54;100269.34;1622347;54;20042;-78
2021/08/17 04:32:40;;;;;;;8.73;4.63;;;;;;;12.40;78.17;100267.06;1624230;39;20541;-78
2021/08/17 04:34:16;;;;;;;8.60;4.47;;;;;;;12.41;78.20;100266.09;1623761;39;20443;-75
2021/08/17 04:35:50;;;;;;;9.43;5.40;;;;;;;12.41;77.84;100273.28;1623500;54;20294;-77
2021/08/17 04:37:24;;;;;;;8.25;4.88;;;;;;;12.38;78.21;100266.38;1623697;54;20060;-77
2021/08/17 04:38:57;;;;;;;11.63;5.15;;;;;;;12.33;78.40;100264.16;1623651;54;20037;-77
2021/08/17 04:40:31;;;;;;;9.20;4.53;;;;;;;12.34;78.23;100264.97;1623964;39;20472;-77
2021/08/17 04:42:05;;;;;;;8.65;5.97;;;;;;;12.36;78.28;100267.53;1623030;47;20030;-76
2021/08/17 04:43:39;;;;;;;10.10;4.82;;;;;;;12.39;78.39;100276.13;1623962;54;20038;-76
2021/08/17 04:45:13;;;;;;;9.10;5.07;;;;;;;12.41;78.29;100275.94;1623391;47;21132;-76
2021/08/17 04:46:47;;;;;;;9.65;4.95;;;;;;;12.39;78.31;100265.38;1623921;54;20038;-75
2021/08/17 04:48:20;;;;;;;12.63;5.75;;;;;;;12.44;78.03;100272.97;1623263;47;20038;-76
2021/08/17 04:49:57;;;;;;;9.55;5.07;;;;;;;12.43;78.09;100265.94;1624489;39;20507;-78
2021/08/17 04:51:31;;;;;;;11.30;5.13;;;;;;;12.42;78.08;100261.56;1625007;39;20933;-76
2021/08/17 04:53:04;;;;;;;10.02;4.72;;;;;;;12.44;78.13;100262.25;1623471;54;20031;-77
2021/08/17 04:54:39;;;;;;;9.48;4.57;;;;;;;12.50;77.92;100268.84;1623700;54;20086;-77
2021/08/17 04:56:12;;;;;;;10.30;4.68;;;;;;;12.52;77.74;100267.69;1623648;54;20062;-76
2021/08/17 04:57:51;;;;;;;9.38;4.82;;;;;;;12.47;77.80;100269.97;1623475;47;20037;-76
2021/08/17 04:59:25;;;;;;;8.95;5.25;;;;;;;12.46;77.57;100271.00;1624305;54;20023;-76
2021/08/17 05:00:59;;;;;;;9.88;5.15;;;;;;;12.47;77.52;100272.66;1627143;47;20094;-77
2021/08/17 05:02:33;;;;;;;9.57;5.13;;;;;;;12.47;77.90;100276.19;1626701;39;20140;-78
2021/08/17 05:04:08;;;;;;;12.77;4.88;;;;;;;12.45;78.07;100283.53;1624613;39;20418;-75
2021/08/17 05:05:44;;;;;;;12.73;5.40;;;;;;;12.44;77.95;100281.03;1623407;47;20065;-77
2021/08/17 05:07:17;;;;;;;9.30;4.75;;;;;;;12.47;77.67;100284.25;1623764;54;20061;-76
2021/08/17 05:08:51;;;;;;;10.02;4.95;;;;;;;12.48;77.71;100282.38;1623412;47;20776;-75
2021/08/17 05:10:25;;;;;;;9.30;4.72;;;;;;;12.45;77.74;100277.34;1623858;47;20080;-77
2021/08/17 05:11:59;;;;;;;11.48;4.90;;;;;;;12.41;78.22;100289.34;1623149;54;20038;-77
2021/08/17 05:13:33;;;;;;;8.65;4.78;;;;;;;12.39;78.16;100283.28;1624427;31;20543;-76
2021/08/17 05:15:08;;;;;;;9.18;5.38;;;;;;;12.38;78.24;100271.75;1623265;54;20128;-77
2021/08/17 05:16:42;;;;;;;8.75;4.72;;;;;;;12.37;78.16;100277.25;1623703;47;20069;-77
2021/08/17 05:18:16;;;;;;;10.68;5.15;;;;;;;12.32;78.37;100281.22;1623335;47;20030;-77
2021/08/17 05:19:49;;;;;;;9.70;4.72;;;;;;;12.37;78.09;100285.31;1623759;54;20023;-76
2021/08/17 05:21:25;;;;;;;9.80;5.22;;;;;;;12.37;77.99;100279.94;1623819;54;20090;-77
2021/08/17 05:22:59;;;;;;;10.77;5.00;;;;;;;12.33;78.02;100280.25;1623657;47;20036;-76
2021/08/17 05:24:33;;;;;;;11.38;5.40;;;;;;;12.31;78.20;100284.06;1623463;47;20153;-77
2021/08/17 05:26:07;;;;;;;9.35;5.38;;;;;;;12.33;78.28;100282.91;1623397;47;20560;-78
2021/08/17 05:27:40;;;;;;;11.77;5.43;;;;;;;12.34;78.16;100289.09;1624448;39;20499;-78
2021/08/17 05:29:14;;;;;;;9.13;5.05;;;;;;;12.35;78.29;100281.94;1624492;39;20460;-77
2021/08/17 05:30:47;;;;;;;9.75;5.25;;;;;;;12.35;78.21;100280.06;1624293;47;20031;-76
2021/08/17 05:32:21;;;;;;;11.15;6.53;;;;;;;12.39;78.20;100283.28;1624011;47;20030;-77
2021/08/17 05:33:55;;;;;;;9.35;5.25;;;;;;;12.47;77.91;100283.38;1624076;54;20129;-76
2021/08/17 05:35:28;;;;;;;8.18;4.32;;;;;;;12.57;77.72;100286.84;1623774;47;20065;-77
2021/08/17 05:37:05;;;;;;;8.32;4.65;;;;;;;12.71;77.03;100281.97;1624554;39;20452;-75
2021/08/17 05:38:40;;;;;;;15.30;5.60;;;;;;;12.79;76.85;100282.88;1626672;54;20031;-80
2021/08/17 05:40:14;;;;;;;8.32;4.90;;;;;;;12.70;76.40;100291.00;1628573;47;20118;-77
2021/08/17 05:41:47;;;;;;;12.52;6.03;;;;;;;12.64;76.44;100292.44;1629325;54;20086;-77
2021/08/17 05:43:21;;;;;;;11.60;6.60;;;;;;;12.58;76.70;100287.69;1629482;54;20095;-76
2021/08/17 05:44:57;;;;;;;10.00;5.82;;;;;;;12.59;76.83;100284.03;1629265;47;20165;-78
2021/08/17 05:46:31;;;;;;;12.52;5.70;;;;;;;12.63;76.66;100288.94;1629555;47;20053;-78
2021/08/17 05:48:07;;;;;;;14.10;6.00;;;;;;;12.68;76.69;100292.97;1629693;47;20102;-77
2021/08/17 05:49:41;;;;;;;11.57;5.53;;;;;;;12.67;76.83;100292.16;1629281;47;20061;-77
2021/08/17 05:51:15;;;;;;;10.50;5.57;;;;;;;12.61;76.70;100295.44;1629653;47;20161;-77
2021/08/17 05:52:51;;;;;;;10.10;5.07;;;;;;;12.62;76.76;100289.06;1625686;47;20134;-76
2021/08/17 05:54:26;;;;;;;10.65;4.90;;;;;;;12.67;76.97;100289.47;1625135;54;20026;-75
2021/08/17 05:55:59;;;;;;;9.32;5.50;;;;;;;12.73;76.84;100296.06;1623660;47;20054;-77
2021/08/17 05:57:33;;;;;;;10.30;5.57;;;;;;;12.79;76.86;100298.13;1624252;39;20701;-76
2021/08/17 05:59:06;;;;;;;10.05;5.05;;;;;;;12.82;76.79;100294.28;1623494;47;20575;-76
2021/08/17 06:00:40;;;;;;;11.88;5.45;;;;;;;12.89;76.62;100296.22;1624131;47;20122;-76
2021/08/17 06:02:13;;;;;;;10.38;4.72;;;;;;;12.98;76.55;100298.97;1623673;47;20030;-77
2021/08/17 06:03:47;;;;;;;12.15;5.38;;;;;;;12.95;76.19;100300.94;1624113;54;20042;-76
2021/08/17 06:05:21;;;;;;;9.52;5.30;;;;;;;12.99;76.47;100289.91;1623583;47;20129;-77
2021/08/17 06:06:55;;;;;;;8.77;5.38;;;;;;;13.03;76.39;100294.00;1623534;47;20208;-76
2021/08/17 06:08:32;;;;;;;9.00;4.75;;;;;;;13.13;75.92;100294.72;1623844;54;20067;-76
2021/08/17 06:10:07;;;;;;;13.93;5.30;;;;;;;13.18;75.98;100284.38;1623476;54;20030;-76
2021/08/17 06:11:41;;;;;;;9.43;4.60;;;;;;;13.19;75.83;100280.69;1623845;54;20057;-76
2021/08/17 06:13:15;;;;;;;10.13;5.25;;;;;;;13.25;75.71;100285.44;1623402;47;20061;-76
2021/08/17 06:14:49;;;;;;;10.45;5.40;;;;;;;13.29;75.54;100288.63;1623795;47;20062;-77
2021/08/17 06:16:22;;;;;;;11.23;5.80;;;;;;;13.29;75.73;100295.88;1623735;47;20125;-76
2021/08/17 06:18:01;;;;;;;10.48;5.68;;;;;;;13.31;75.76;100294.69;1625058;39;20441;-76
2021/08/17 06:19:35;;;;;;;11.60;4.85;;;;;;;13.35;75.79;100298.78;1624420;54;20035;-76
2021/08/17 06:21:09;;;;;;;9.52;4.75;;;;;;;13.46;75.49;100297.69;1624401;54;20579;-76
2021/08/17 06:22:43;;;;;;;13.18;5.80;;;;;;;13.54;75.25;100303.13;1623987;46;20615;-77
2021/08/17 06:24:19;;;;;;;12.10;5.18;;;;;;;13.59;75.28;100296.44;1624522;47;20172;-76
2021/08/17 06:25:52;;;;;;;10.30;5.20;;;;;;;13.60;75.11;100298.13;1624281;47;20045;-76
2021/08/17 06:27:26;;;;;;;11.88;6.18;;;;;;;13.65;74.73;100306.53;1624538;54;20037;-76
2021/08/17 06:29:00;;;;;;;20.35;6.40;;;;;;;13.68;74.66;100300.88;1623635;54;20031;-77
2021/08/17 06:30:34;;;;;;;13.35;5.22;;;;;;;13.77;74.41;100309.78;1624283;47;20100;-76
2021/08/17 06:32:08;;;;;;;11.63;6.28;;;;;;;13.85;74.07;100307.16;1624129;54;20045;-76
2021/08/17 06:33:42;;;;;;;13.52;5.65;;;;;;;13.91;73.43;100293.09;1623947;54;20956;-76
2021/08/17 06:35:15;;;;;;;12.77;5.78;;;;;;;13.88;72.89;100288.88;1624131;54;20043;-77
2021/08/17 06:36:49;;;;;;;10.73;6.07;;;;;;;13.88;73.10;100288.88;1623575;47;20086;-76
2021/08/17 06:38:22;;;;;;;8.10;4.82;;;;;;;13.94;72.89;100294.59;1623976;47;20030;-77
2021/08/17 06:39:59;;;;;;;11.10;5.43;;;;;;;13.99;72.48;100293.13;1624517;39;20432;-76
2021/08/17 06:41:32;;;;;;;11.77;6.25;;;;;;;14.02;72.66;100305.41;1624572;39;20674;-76
2021/08/17 06:43:06;;;;;;;12.15;6.20;;;;;;;14.10;72.47;100309.97;1624051;54;20037;-75
2021/08/17 06:44:40;;;;;;;21.67;7.10;;;;;;;14.12;71.94;100297.22;1624107;54;20155;-77
2021/08/17 06:46:14;;;;;;;13.10;6.45;;;;;;;14.18;71.80;100305.44;1623468;54;20044;-78
2021/08/17 06:47:49;;;;;;;13.55;5.70;;;;;;;14.27;71.30;100302.78;1624423;47;20042;-74
2021/08/17 06:49:22;;;;;;;10.88;5.70;;;;;;;14.28;70.95;100307.16;1623906;54;20038;-76
2021/08/17 06:50:56;;;;;;;10.40;5.75;;;;;;;14.36;71.17;100299.13;1623874;47;20046;-76
2021/08/17 06:52:30;;;;;;;10.45;6.15;;;;;;;14.44;70.98;100306.38;1624017;54;20037;-75
2021/08/17 06:54:03;;;;;;;22.15;7.43;;;;;;;14.48;70.85;100313.13;1624450;39;20542;-76
2021/08/17 06:55:40;;;;;;;11.32;6.43;;;;;;;14.53;70.63;100304.56;1623813;54;20146;-76
2021/08/17 06:57:13;;;;;;;17.00;6.80;;;;;;;14.57;70.46;100305.91;1623812;54;20040;-75
2021/08/17 06:58:47;;;;;;;17.80;7.13;;;;;;;14.68;70.17;100308.31;1623912;54;20049;-76
2021/08/17 07:00:21;;;;;;;14.40;5.65;;;;;;;14.77;69.18;100310.03;1625197;39;20328;-75
2021/08/17 07:01:54;;;;;;;10.00;6.25;;;;;;;14.81;68.69;100319.47;1623874;47;20137;-75
2021/08/17 07:03:28;;;;;;;14.13;6.85;;;;;;;14.87;68.73;100311.72;1623975;54;20586;-76
2021/08/17 07:05:01;;;;;;;11.40;6.28;;;;;;;14.90;68.23;100316.78;1624181;50;20165;-75
2021/08/17 07:06:35;;;;;;;16.20;6.05;;;;;;;14.87;67.73;100322.47;1623654;54;20034;-76
2021/08/17 07:08:10;;;;;;;11.00;6.43;;;;;;;14.93;67.62;100327.19;1624215;54;20042;-75
2021/08/17 07:09:43;;;;;;;13.98;6.32;;;;;;;14.97;67.65;100326.69;1623745;54;20042;-75
2021/08/17 07:11:19;;;;;;;14.98;6.30;;;;;;;15.02;67.43;100326.19;1623951;47;20638;-76
2021/08/17 07:12:53;;;;;;;10.20;5.85;;;;;;;15.09;67.36;100326.38;1623945;46;20044;-77
2021/08/17 07:14:28;;;;;;;8.38;5.05;;;;;;;15.20;67.38;100326.03;1624433;39;20466;-75
2021/08/17 07:16:01;;;;;;;15.05;6.20;;;;;;;15.32;66.60;100337.31;1623695;47;20031;-75